createdAt,value
2023-01-12T00:01:45.753Z,2.33
2023-01-12T00:04:13.989Z,2.40
2023-01-12T00:06:41.775Z,2.55
2023-01-12T00:09:09.745Z,2.38
2023-01-12T00:11:38.122Z,2.90
2023-01-12T00:14:06.391Z,3.00
2023-01-12T00:16:38.192Z,2.40
2023-01-12T00:19:16.878Z,3.28
2023-01-12T00:22:13.410Z,2.67
2023-01-12T00:24:45.340Z,2.42
2023-01-12T00:27:18.079Z,2.55
2023-01-12T00:29:44.663Z,2.80
2023-01-12T00:32:16.660Z,3.40
2023-01-12T00:34:43.943Z,2.35
2023-01-12T00:37:11.442Z,2.78
2023-01-12T00:39:40.715Z,2.17
2023-01-12T00:42:31.244Z,2.60
2023-01-12T00:45:16.487Z,2.60
2023-01-12T00:47:43.325Z,2.17
2023-01-12T00:50:10.079Z,3.33
2023-01-12T00:52:36.793Z,2.72
2023-01-12T00:55:03.513Z,3.28
2023-01-12T00:57:30.454Z,2.28
2023-01-12T00:59:59.091Z,2.90
2023-01-12T01:02:27.194Z,2.65
2023-01-12T01:04:53.660Z,3.13
2023-01-12T01:07:21.474Z,2.42
2023-01-12T01:09:48.497Z,2.95
2023-01-12T01:12:14.899Z,2.60
2023-01-12T01:14:41.756Z,2.50
2023-01-12T01:17:08.493Z,2.60
2023-01-12T01:19:34.996Z,3.20
2023-01-12T01:22:01.400Z,3.78
2023-01-12T01:24:28.108Z,3.05
2023-01-12T01:26:54.540Z,3.17
2023-01-12T01:29:21.303Z,2.90
2023-01-12T01:31:47.931Z,3.28
2023-01-12T01:34:15.078Z,2.95
2023-01-12T01:36:41.895Z,3.47
2023-01-12T01:39:08.493Z,2.47
2023-01-12T01:41:43.545Z,3.58
2023-01-12T01:44:32.871Z,2.63
2023-01-12T01:47:28.625Z,3.08
2023-01-12T01:50:19.742Z,3.35
2023-01-12T01:53:20.877Z,3.17
2023-01-12T01:56:26.352Z,2.58
2023-01-12T01:59:20.410Z,2.85
2023-01-12T02:01:47.395Z,2.83
2023-01-12T02:04:14.815Z,2.60
2023-01-12T02:06:41.914Z,2.75
2023-01-12T02:09:16.429Z,3.35
2023-01-12T02:12:02.754Z,3.72
2023-01-12T02:14:48.108Z,2.75
2023-01-12T02:17:33.597Z,2.42
2023-01-12T02:20:29.388Z,2.63
2023-01-12T02:23:05.128Z,2.50
2023-01-12T02:26:04.579Z,2.50
2023-01-12T02:28:53.016Z,2.72
2023-01-12T02:31:44.234Z,3.35
2023-01-12T02:34:27.028Z,2.72
2023-01-12T02:37:07.700Z,2.35
2023-01-12T02:40:19.801Z,2.17
2023-01-12T02:43:00.053Z,2.42
2023-01-12T02:45:48.465Z,2.90
2023-01-12T02:48:32.006Z,2.88
2023-01-12T02:51:11.047Z,2.97
2023-01-12T02:53:51.220Z,2.85
2023-01-12T02:56:24.983Z,2.10
2023-01-12T02:58:56.634Z,3.17
2023-01-12T03:01:26.614Z,2.85
2023-01-12T03:04:01.088Z,2.78
2023-01-12T03:06:42.000Z,2.63
2023-01-12T03:11:40.078Z,2.97
2023-01-12T03:14:08.978Z,3.03
2023-01-12T03:16:38.358Z,2.88
2023-01-12T03:19:09.815Z,2.63
2023-01-12T03:21:42.003Z,2.92
2023-01-12T03:24:15.097Z,3.17
2023-01-12T03:26:47.578Z,2.85
2023-01-12T03:29:22.253Z,2.67
2023-01-12T03:31:49.080Z,2.97
2023-01-12T03:34:15.999Z,3.67
2023-01-12T03:36:49.534Z,3.42
2023-01-12T03:39:25.759Z,3.90
2023-01-12T03:42:17.797Z,2.78
2023-01-12T03:45:15.857Z,2.90
2023-01-12T03:47:43.815Z,3.15
2023-01-12T03:50:19.664Z,2.50
2023-01-12T03:52:47.901Z,3.42
2023-01-12T03:55:19.420Z,2.33
2023-01-12T03:57:47.612Z,2.75
2023-01-12T04:00:16.620Z,3.13
2023-01-12T04:02:44.511Z,2.67
2023-01-12T04:05:13.515Z,2.20
2023-01-12T04:07:40.814Z,3.00
2023-01-12T04:10:08.020Z,2.70
2023-01-12T04:12:35.253Z,2.97
2023-01-12T04:15:01.893Z,2.95
2023-01-12T04:17:29.124Z,3.05
2023-01-12T04:19:55.873Z,2.92
2023-01-12T04:22:41.619Z,2.50
2023-01-12T04:25:09.950Z,2.90
2023-01-12T04:27:40.429Z,2.75
2023-01-12T04:30:07.861Z,2.47
2023-01-12T04:32:34.577Z,2.65
2023-01-12T04:35:01.217Z,2.97
2023-01-12T04:37:27.913Z,3.10
2023-01-12T04:39:54.629Z,2.67
2023-01-12T04:42:40.234Z,3.42
2023-01-12T04:45:07.180Z,2.88
2023-01-12T04:47:34.633Z,3.72
2023-01-12T04:50:01.080Z,2.90
2023-01-12T04:52:27.550Z,2.85
2023-01-12T04:54:56.730Z,2.35
2023-01-12T04:57:24.169Z,3.35
2023-01-12T04:59:50.660Z,2.50
2023-01-12T05:02:17.546Z,3.08
2023-01-12T05:04:47.152Z,2.42
2023-01-12T05:07:14.030Z,2.73
2023-01-12T05:09:59.462Z,2.53
2023-01-12T05:12:26.470Z,2.47
2023-01-12T05:14:53.461Z,2.95
2023-01-12T05:17:20.283Z,3.42
2023-01-12T05:19:48.733Z,2.80
2023-01-12T05:22:16.155Z,3.13
2023-01-12T05:24:42.569Z,2.70
2023-01-12T05:27:09.451Z,2.92
2023-01-12T05:29:36.096Z,2.88
2023-01-12T05:32:02.721Z,2.45
2023-01-12T05:34:29.788Z,2.88
2023-01-12T05:36:56.205Z,2.83
2023-01-12T05:39:22.683Z,2.25
2023-01-12T05:42:08.207Z,3.45
2023-01-12T05:44:34.875Z,2.90
2023-01-12T05:47:01.389Z,3.20
2023-01-12T05:49:27.832Z,2.88
2023-01-12T05:51:54.349Z,2.95
2023-01-12T05:54:21.456Z,2.40
2023-01-12T05:56:49.868Z,3.45
2023-01-12T05:59:16.903Z,2.63
2023-01-12T06:01:43.960Z,2.90
2023-01-12T06:04:12.897Z,2.70
2023-01-12T06:06:39.595Z,3.08
2023-01-12T06:09:06.357Z,2.60
2023-01-12T06:11:56.048Z,3.10
2023-01-12T06:14:22.955Z,3.72
2023-01-12T06:16:49.403Z,3.00
2023-01-12T06:19:16.586Z,3.25
2023-01-12T06:21:43.393Z,3.13
2023-01-12T06:24:10.103Z,3.13
2023-01-12T06:26:36.588Z,2.78
2023-01-12T06:29:05.603Z,2.67
2023-01-12T06:31:33.149Z,2.92
2023-01-12T06:34:00.073Z,2.70
2023-01-12T06:36:26.862Z,2.63
2023-01-12T06:38:53.286Z,4.28
2023-01-12T06:41:38.860Z,2.65
2023-01-12T06:44:05.646Z,2.80
2023-01-12T06:46:32.517Z,2.80
2023-01-12T06:48:59.617Z,2.58
2023-01-12T06:51:26.621Z,2.85
2023-01-12T06:53:53.570Z,3.00
2023-01-12T06:56:20.220Z,3.55
2023-01-12T06:58:47.256Z,3.03
2023-01-12T07:01:14.402Z,2.92
2023-01-12T07:03:40.957Z,3.20
2023-01-12T07:06:07.986Z,3.47
2023-01-12T07:08:35.489Z,2.95
2023-01-12T07:11:03.612Z,3.15
2023-01-12T07:13:33.172Z,2.80
2023-01-12T07:16:01.037Z,3.20
2023-01-12T07:18:29.355Z,2.97
2023-01-12T07:20:56.149Z,2.83
2023-01-12T07:23:22.863Z,2.90
2023-01-12T07:25:49.528Z,3.35
2023-01-12T07:28:16.126Z,2.55
2023-01-12T07:30:43.746Z,2.78
2023-01-12T07:33:12.913Z,3.13
2023-01-12T07:35:40.491Z,3.47
2023-01-12T07:38:07.461Z,2.58
2023-01-12T07:40:35.024Z,2.72
2023-01-12T07:43:04.046Z,2.90
2023-01-12T07:45:31.197Z,2.55
2023-01-12T07:47:57.868Z,2.60
2023-01-12T07:50:26.585Z,3.40
2023-01-12T07:52:53.454Z,2.75
2023-01-12T07:55:20.920Z,2.85
2023-01-12T07:57:57.815Z,2.80
2023-01-12T08:00:26.519Z,2.40
2023-01-12T08:02:54.929Z,2.58
2023-01-12T08:05:22.737Z,2.65
2023-01-12T08:07:49.524Z,2.80
2023-01-12T08:10:16.384Z,2.72
2023-01-12T08:12:43.250Z,2.80
2023-01-12T08:15:11.262Z,3.42
2023-01-12T08:17:55.002Z,3.47
2023-01-12T08:20:27.803Z,3.13
2023-01-12T08:22:58.416Z,3.13
2023-01-12T08:25:33.204Z,3.03
2023-01-12T08:28:03.730Z,2.75
2023-01-12T08:30:30.726Z,2.42
2023-01-12T08:33:00.238Z,2.30
2023-01-12T08:35:29.551Z,2.22
2023-01-12T08:37:56.925Z,2.90
2023-01-12T08:40:24.568Z,2.03
2023-01-12T08:42:51.065Z,2.65
2023-01-12T08:45:17.785Z,2.38
2023-01-12T08:47:45.273Z,2.50
2023-01-12T08:50:11.821Z,1.90
2023-01-12T08:52:38.492Z,2.53
2023-01-12T08:55:05.871Z,2.53
2023-01-12T08:57:32.489Z,2.53
2023-01-12T08:59:58.915Z,2.67
2023-01-12T09:02:26.962Z,2.58
2023-01-12T09:04:53.609Z,2.30
2023-01-12T09:07:20.603Z,2.65
2023-01-12T09:09:47.032Z,2.20
2023-01-12T09:12:13.474Z,2.03
2023-01-12T09:14:40.197Z,2.80
2023-01-12T09:17:07.655Z,2.53
2023-01-12T09:19:34.603Z,2.08
2023-01-12T09:22:01.026Z,2.42
2023-01-12T09:24:28.114Z,1.77
2023-01-12T09:26:55.106Z,1.70
2023-01-12T09:29:21.851Z,3.03
2023-01-12T09:31:48.659Z,2.50
2023-01-12T09:34:15.479Z,2.22
2023-01-12T09:36:42.447Z,2.50
2023-01-12T09:39:12.879Z,2.08
2023-01-12T09:42:05.643Z,2.00
2023-01-12T09:44:59.714Z,1.77
2023-01-12T09:48:03.615Z,2.25
2023-01-12T09:50:36.203Z,2.25
2023-01-12T09:53:10.715Z,2.50
2023-01-12T09:55:44.621Z,2.15
2023-01-12T09:58:39.164Z,2.67
2023-01-12T10:01:24.182Z,2.17
2023-01-12T10:03:55.403Z,2.40
2023-01-12T10:06:21.915Z,2.80
2023-01-12T10:09:12.048Z,1.90
2023-01-12T10:11:53.028Z,1.77
2023-01-12T10:14:31.641Z,1.95
2023-01-12T10:17:52.505Z,2.10
2023-01-12T10:20:41.859Z,1.73
2023-01-12T10:23:08.682Z,1.92
2023-01-12T10:25:48.839Z,2.42
2023-01-12T10:28:24.822Z,2.80
2023-01-12T10:30:56.004Z,2.20
2023-01-12T10:33:25.794Z,2.13
2023-01-12T10:36:03.010Z,2.08
2023-01-12T10:38:34.523Z,2.67
2023-01-12T10:41:10.256Z,1.83
2023-01-12T10:43:38.207Z,2.53
2023-01-12T10:46:14.653Z,2.40
2023-01-12T10:48:45.254Z,2.20
2023-01-12T10:51:29.853Z,2.13
2023-01-12T10:54:10.449Z,1.70
2023-01-12T10:56:54.044Z,2.10
2023-01-12T10:59:25.409Z,2.20
2023-01-12T11:02:13.096Z,1.70
2023-01-12T11:04:42.676Z,1.65
2023-01-12T11:07:15.439Z,2.03
2023-01-12T11:09:43.490Z,2.28
2023-01-12T11:12:20.892Z,2.30
2023-01-12T11:15:00.289Z,2.35
2023-01-12T11:17:49.983Z,2.00
2023-01-12T11:20:42.229Z,2.20
2023-01-12T11:23:14.542Z,1.83
2023-01-12T11:25:47.222Z,2.00
2023-01-12T11:28:42.644Z,2.08
2023-01-12T11:31:19.561Z,1.83
2023-01-12T11:33:54.997Z,2.38
2023-01-12T11:36:29.674Z,1.75
2023-01-12T11:39:04.982Z,1.92
2023-01-12T11:41:39.441Z,1.77
2023-01-12T11:44:15.203Z,2.25
2023-01-12T11:46:52.171Z,2.90
2023-01-12T11:49:36.879Z,2.00
2023-01-12T11:52:03.682Z,1.90
2023-01-12T11:54:31.561Z,2.00
2023-01-12T11:57:28.647Z,1.88
2023-01-12T12:00:20.087Z,2.95
2023-01-12T12:02:56.160Z,1.77
2023-01-12T12:05:34.066Z,1.70
2023-01-12T12:08:39.726Z,1.90
2023-01-12T12:11:24.402Z,1.80
2023-01-12T12:14:08.479Z,2.00
2023-01-12T12:17:05.939Z,1.77
2023-01-12T12:19:33.465Z,1.75
2023-01-12T12:22:20.021Z,1.70
2023-01-12T12:25:17.520Z,2.05
2023-01-12T12:27:56.347Z,2.10
2023-01-12T12:30:48.231Z,1.75
2023-01-12T12:33:47.313Z,1.90
2023-01-12T12:36:48.835Z,1.75
2023-01-12T12:39:47.765Z,1.95
2023-01-12T12:43:03.404Z,1.30
2023-01-12T12:45:46.879Z,1.50
2023-01-12T12:48:20.066Z,1.73
2023-01-12T12:50:58.872Z,1.50
2023-01-12T12:53:28.934Z,1.33
2023-01-12T12:56:00.883Z,1.17
2023-01-12T12:58:30.833Z,1.55
2023-01-12T13:01:20.491Z,1.50
2023-01-12T13:03:50.271Z,1.85
2023-01-12T13:06:28.987Z,1.52
2023-01-12T13:09:06.793Z,1.27
2023-01-12T13:12:08.841Z,1.50
2023-01-12T13:14:37.242Z,1.30
2023-01-12T13:17:23.687Z,1.85
2023-01-12T13:19:53.295Z,1.23
2023-01-12T13:22:44.688Z,1.33
2023-01-12T13:25:11.571Z,1.40
2023-01-12T13:28:00.235Z,1.30
2023-01-12T13:30:27.377Z,1.35
2023-01-12T13:33:12.641Z,1.33
2023-01-12T13:35:40.411Z,1.10
2023-01-12T13:38:43.754Z,1.27
2023-01-12T13:41:13.717Z,1.63
2023-01-12T13:43:52.668Z,1.30
2023-01-12T13:46:27.208Z,1.35
2023-01-12T13:48:55.714Z,1.02
2023-01-12T13:51:34.082Z,1.23
2023-01-12T13:54:04.169Z,1.13
2023-01-12T13:56:31.509Z,1.42
2023-01-12T13:59:03.781Z,1.60
2023-01-12T14:01:34.632Z,1.35
2023-01-12T14:04:20.173Z,1.25
2023-01-12T14:07:11.655Z,1.20
2023-01-12T14:10:06.917Z,1.60
2023-01-12T14:12:52.265Z,1.90
2023-01-12T14:15:42.196Z,1.42
2023-01-12T14:18:15.131Z,1.25
2023-01-12T14:20:47.620Z,1.63
2023-01-12T14:23:22.177Z,1.30
2023-01-12T14:26:10.317Z,1.10
2023-01-12T14:28:38.722Z,1.33
2023-01-12T14:31:08.177Z,1.20
2023-01-12T14:33:38.204Z,1.50
2023-01-12T14:36:16.850Z,1.17
2023-01-12T14:38:44.263Z,1.20
2023-01-12T14:41:45.338Z,0.98
2023-01-12T14:44:42.833Z,1.10
2023-01-12T14:47:10.308Z,1.05
2023-01-12T14:49:38.268Z,1.08
2023-01-12T14:52:16.847Z,1.20
2023-01-12T14:54:43.793Z,1.30
2023-01-12T14:57:34.993Z,1.10
2023-01-12T15:00:03.120Z,0.90
2023-01-12T15:02:34.299Z,1.42
2023-01-12T15:05:16.823Z,0.80
2023-01-12T15:07:56.707Z,1.85
2023-01-12T15:10:41.661Z,1.35
2023-01-12T15:13:35.051Z,1.10
2023-01-12T15:16:21.464Z,1.27
2023-01-12T15:19:06.660Z,1.15
2023-01-12T15:21:53.193Z,1.38
2023-01-12T15:24:43.527Z,1.67
2023-01-12T15:27:12.789Z,1.65
2023-01-12T15:29:39.300Z,1.58
2023-01-12T15:32:14.163Z,1.70
2023-01-12T15:34:40.651Z,1.58
2023-01-12T15:37:13.742Z,1.70
2023-01-12T15:39:40.146Z,1.60
2023-01-12T15:42:17.799Z,2.05
2023-01-12T15:44:45.558Z,1.30
2023-01-12T15:47:13.844Z,1.30
2023-01-12T15:49:41.632Z,1.00
2023-01-12T15:52:16.564Z,1.45
2023-01-12T15:54:43.304Z,1.25
2023-01-12T15:57:14.111Z,1.17
2023-01-12T15:59:41.225Z,1.10
2023-01-12T16:02:36.214Z,1.00
2023-01-12T16:05:04.864Z,0.90
2023-01-12T16:07:31.725Z,1.02
2023-01-12T16:09:58.319Z,1.02
2023-01-12T16:12:24.958Z,1.08
2023-01-12T16:14:51.772Z,1.10
2023-01-12T16:17:19.083Z,0.77
2023-01-12T16:19:45.515Z,1.00
2023-01-12T16:22:20.856Z,0.60
2023-01-12T16:24:48.930Z,1.45
2023-01-12T16:27:16.761Z,0.88
2023-01-12T16:29:43.602Z,0.68
2023-01-12T16:32:10.853Z,1.30
2023-01-12T16:34:37.838Z,1.20
2023-01-12T16:37:04.994Z,0.98
2023-01-12T16:39:31.606Z,1.50
2023-01-12T16:42:03.639Z,0.80
2023-01-12T16:44:32.425Z,1.30
2023-01-12T16:46:59.277Z,0.90
2023-01-12T16:49:26.110Z,0.82
2023-01-12T16:51:52.573Z,0.70
2023-01-12T16:54:19.891Z,0.70
2023-01-12T16:56:46.809Z,0.93
2023-01-12T16:59:13.229Z,0.70
2023-01-12T17:01:39.876Z,0.68
2023-01-12T17:04:06.640Z,0.90
2023-01-12T17:06:33.380Z,0.70
2023-01-12T17:09:03.308Z,0.70
2023-01-12T17:11:30.760Z,1.50
2023-01-12T17:13:58.118Z,0.80
2023-01-12T17:16:28.083Z,1.17
2023-01-12T17:18:54.783Z,1.02
2023-01-12T17:21:22.036Z,1.08
2023-01-12T17:23:48.895Z,2.03
2023-01-12T17:26:18.057Z,1.73
2023-01-12T17:28:46.377Z,1.50
2023-01-12T17:31:16.689Z,1.42
2023-01-12T17:33:43.876Z,1.75
2023-01-12T17:36:12.390Z,1.20
2023-01-12T17:38:40.048Z,1.60
2023-01-12T17:41:32.039Z,1.20
2023-01-12T17:43:58.571Z,1.65
2023-01-12T17:46:25.264Z,1.63
2023-01-12T17:48:51.858Z,1.42
2023-01-12T17:51:18.915Z,1.30
2023-01-12T17:53:45.732Z,1.40
2023-01-12T17:56:13.709Z,1.10
2023-01-12T17:58:40.892Z,1.13
2023-01-12T18:01:12.244Z,1.40
2023-01-12T18:03:39.556Z,1.23
2023-01-12T18:06:12.100Z,1.40
2023-01-12T18:08:46.286Z,1.13
2023-01-12T18:11:12.818Z,1.30
2023-01-12T18:13:41.308Z,1.70
2023-01-12T18:16:10.567Z,1.70
2023-01-12T18:18:38.659Z,1.40
2023-01-12T18:21:09.468Z,1.30
2023-01-12T18:23:38.723Z,1.55
2023-01-12T18:26:11.601Z,1.27
2023-01-12T18:28:38.199Z,1.25
2023-01-12T18:31:19.813Z,1.20
2023-01-12T18:33:53.478Z,1.52
2023-01-12T18:36:23.144Z,1.40
2023-01-12T18:38:51.121Z,1.10
2023-01-12T18:41:37.763Z,1.23
2023-01-12T18:44:05.614Z,1.40
2023-01-12T18:46:53.362Z,1.45
2023-01-12T18:49:31.261Z,1.15
2023-01-12T18:52:16.938Z,1.65
2023-01-12T18:54:47.963Z,1.50
2023-01-12T18:57:17.546Z,1.50
2023-01-12T18:59:45.523Z,1.00
2023-01-12T19:02:12.755Z,1.35
2023-01-12T19:05:05.701Z,2.00
2023-01-12T19:08:05.101Z,1.50
2023-01-12T19:10:32.597Z,1.30
2023-01-12T19:13:18.377Z,1.63
2023-01-12T19:16:03.739Z,1.58
2023-01-12T19:18:30.322Z,1.38
2023-01-12T19:21:22.716Z,1.25
2023-01-12T19:24:08.075Z,1.15
2023-01-12T19:26:53.628Z,1.10
2023-01-12T19:29:20.142Z,1.75
2023-01-12T19:31:46.642Z,1.27
2023-01-12T19:34:13.183Z,1.08
2023-01-12T19:36:39.654Z,1.20
2023-01-12T19:39:07.551Z,1.30
2023-01-12T19:41:53.468Z,1.50
2023-01-12T19:44:20.112Z,1.55
2023-01-12T19:46:46.723Z,1.42
2023-01-12T19:49:13.268Z,1.70
2023-01-12T19:51:39.757Z,1.10
2023-01-12T19:54:06.248Z,1.00
2023-01-12T19:56:33.131Z,0.98
2023-01-12T19:58:59.772Z,1.40
2023-01-12T20:01:28.318Z,1.63
2023-01-12T20:03:54.796Z,1.40
2023-01-12T20:06:21.493Z,1.30
2023-01-12T20:08:47.877Z,1.52
2023-01-12T20:11:15.437Z,1.20
2023-01-12T20:13:41.989Z,1.10
2023-01-12T20:16:10.020Z,1.17
2023-01-12T20:18:37.174Z,1.38
2023-01-12T20:21:08.157Z,1.20
2023-01-12T20:23:34.759Z,1.25
2023-01-12T20:26:01.200Z,1.10
2023-01-12T20:28:27.792Z,1.00
2023-01-12T20:30:54.392Z,1.05
2023-01-12T20:33:22.457Z,0.93
2023-01-12T20:35:49.680Z,0.90
2023-01-12T20:38:16.940Z,1.25
2023-01-12T20:40:45.459Z,1.02
2023-01-12T20:43:12.762Z,1.30
2023-01-12T20:45:41.626Z,1.35
2023-01-12T20:48:09.357Z,1.50
2023-01-12T20:50:36.640Z,0.98
2023-01-12T20:53:03.246Z,1.20
2023-01-12T20:55:29.786Z,1.33
2023-01-12T20:57:56.302Z,1.10
2023-01-12T21:00:22.809Z,1.10
2023-01-12T21:02:49.196Z,0.93
2023-01-12T21:05:15.788Z,1.60
2023-01-12T21:07:42.355Z,1.15
2023-01-12T21:10:09.398Z,1.10
2023-01-12T21:12:35.772Z,1.20
2023-01-12T21:15:03.929Z,1.25
2023-01-12T21:17:31.542Z,1.30
2023-01-12T21:19:58.049Z,1.40
2023-01-12T21:22:24.904Z,1.00
2023-01-12T21:24:51.385Z,1.50
2023-01-12T21:27:18.063Z,1.30
2023-01-12T21:29:45.815Z,1.40
2023-01-12T21:32:12.475Z,1.55
2023-01-12T21:34:39.078Z,1.50
2023-01-12T21:37:05.648Z,1.50
2023-01-12T21:39:32.763Z,1.20
2023-01-12T21:42:18.072Z,0.95
2023-01-12T21:44:44.595Z,1.30
2023-01-12T21:47:11.113Z,1.23
2023-01-12T21:49:37.788Z,1.52
2023-01-12T21:52:04.742Z,1.33
2023-01-12T21:54:32.088Z,1.00
2023-01-12T21:56:59.012Z,1.52
2023-01-12T21:59:25.468Z,1.20
2023-01-12T22:01:52.336Z,1.27
2023-01-12T22:04:19.125Z,1.10
2023-01-12T22:06:45.832Z,2.08
2023-01-12T22:09:12.660Z,1.30
2023-01-12T22:11:39.135Z,1.23
2023-01-12T22:14:05.671Z,1.10
2023-01-12T22:16:33.027Z,1.20
2023-01-12T22:18:59.618Z,1.00
2023-01-12T22:21:26.701Z,1.15
2023-01-12T22:23:53.212Z,1.00
2023-01-12T22:26:19.993Z,1.48
2023-01-12T22:28:48.028Z,1.40
2023-01-12T22:31:20.657Z,1.45
2023-01-12T22:33:54.027Z,1.20
2023-01-12T22:36:21.031Z,1.10
2023-01-12T22:38:47.488Z,1.55
2023-01-12T22:41:14.485Z,1.45
2023-01-12T22:43:41.563Z,1.60
2023-01-12T22:46:17.740Z,1.20
2023-01-12T22:48:51.181Z,1.40
2023-01-12T22:51:20.959Z,1.40
2023-01-12T22:53:48.400Z,1.20
2023-01-12T22:56:14.907Z,1.60
2023-01-12T22:58:49.665Z,1.83
2023-01-12T23:01:18.063Z,1.10
2023-01-12T23:03:45.411Z,1.67
2023-01-12T23:06:14.841Z,1.65
2023-01-12T23:08:43.120Z,1.30
2023-01-12T23:11:15.599Z,1.60
2023-01-12T23:13:43.921Z,1.30
2023-01-12T23:16:11.868Z,1.38
2023-01-12T23:18:40.110Z,1.33
2023-01-12T23:21:14.015Z,1.63
2023-01-12T23:23:43.636Z,1.30
2023-01-12T23:26:12.771Z,1.47
2023-01-12T23:28:41.368Z,1.15
2023-01-12T23:31:13.123Z,1.55
2023-01-12T23:33:41.551Z,1.30
2023-01-12T23:36:10.947Z,1.10
2023-01-12T23:38:37.981Z,1.73
2023-01-12T23:41:10.784Z,1.17
2023-01-12T23:43:38.024Z,1.30
2023-01-12T23:46:04.684Z,1.48
2023-01-12T23:48:31.276Z,1.30
2023-01-12T23:50:59.115Z,1.10
2023-01-12T23:53:26.271Z,1.20
2023-01-12T23:55:53.987Z,1.17
2023-01-12T23:58:21.302Z,1.30
